createdAt,value
2023-04-04T00:01:31.026Z,3.55
2023-04-04T00:04:01.962Z,3.33
2023-04-04T00:06:31.017Z,3.72
2023-04-04T00:09:00.290Z,3.92
2023-04-04T00:11:29.313Z,3.22
2023-04-04T00:13:58.340Z,3.47
2023-04-04T00:16:27.517Z,3.65
2023-04-04T00:18:56.499Z,3.70
2023-04-04T00:21:27.582Z,3.30
2023-04-04T00:23:57.134Z,3.78
2023-04-04T00:26:26.361Z,4.05
2023-04-04T00:28:56.265Z,3.22
2023-04-04T00:31:25.358Z,3.95
2023-04-04T00:33:54.378Z,3.88
2023-04-04T00:36:23.464Z,3.92
2023-04-04T00:38:53.810Z,3.63
2023-04-04T00:41:22.840Z,3.60
2023-04-04T00:43:51.841Z,3.97
2023-04-04T00:46:21.850Z,3.80
2023-04-04T00:48:51.598Z,3.53
2023-04-04T00:51:20.730Z,3.80
2023-04-04T00:53:51.871Z,3.80
2023-04-04T00:56:23.541Z,3.67
2023-04-04T00:58:53.000Z,3.65
2023-04-04T01:01:25.772Z,3.53
2023-04-04T01:03:55.002Z,3.50
2023-04-04T01:06:24.022Z,3.67
2023-04-04T01:08:55.312Z,3.70
2023-04-04T01:11:27.154Z,3.55
2023-04-04T01:13:56.561Z,3.38
2023-04-04T01:16:25.982Z,3.85
2023-04-04T01:18:56.235Z,3.90
2023-04-04T01:21:26.516Z,3.35
2023-04-04T01:24:01.915Z,3.45
2023-04-04T01:26:42.572Z,3.83
2023-04-04T01:29:12.389Z,4.18
2023-04-04T01:31:49.525Z,3.70
2023-04-04T01:34:25.993Z,4.15
2023-04-04T01:37:04.243Z,4.00
2023-04-04T01:39:43.158Z,4.53
2023-04-04T01:42:16.964Z,3.75
2023-04-04T01:44:48.898Z,4.13
2023-04-04T01:47:18.166Z,4.05
2023-04-04T01:49:47.331Z,3.85
2023-04-04T01:52:17.231Z,4.28
2023-04-04T01:54:46.196Z,3.60
2023-04-04T01:57:16.834Z,4.47
2023-04-04T01:59:46.417Z,4.60
2023-04-04T02:02:15.694Z,4.10
2023-04-04T02:04:44.751Z,3.92
2023-04-04T02:07:14.275Z,3.50
2023-04-04T02:09:43.545Z,3.67
2023-04-04T02:12:12.781Z,3.78
2023-04-04T02:14:43.218Z,3.55
2023-04-04T02:17:12.506Z,4.07
2023-04-04T02:19:41.861Z,3.65
2023-04-04T02:22:10.901Z,3.75
2023-04-04T02:24:40.021Z,3.90
2023-04-04T02:27:10.462Z,3.55
2023-04-04T02:29:39.493Z,3.90
2023-04-04T02:32:09.850Z,3.80
2023-04-04T02:34:38.935Z,3.75
2023-04-04T02:37:08.917Z,3.80
2023-04-04T02:39:37.920Z,3.72
2023-04-04T02:42:07.289Z,3.50
2023-04-04T02:44:36.400Z,4.45
2023-04-04T02:47:07.873Z,3.80
2023-04-04T02:49:38.367Z,4.07
2023-04-04T02:52:08.365Z,3.85
2023-04-04T02:54:41.725Z,3.65
2023-04-04T02:57:12.713Z,3.95
2023-04-04T02:59:41.893Z,3.53
2023-04-04T03:02:11.023Z,3.97
2023-04-04T03:04:41.491Z,3.70
2023-04-04T03:07:11.372Z,4.25
2023-04-04T03:09:40.515Z,3.50
2023-04-04T03:12:09.611Z,3.63
2023-04-04T03:14:38.666Z,3.28
2023-04-04T03:17:09.435Z,3.83
2023-04-04T03:19:38.679Z,3.03
2023-04-04T03:22:09.618Z,3.58
2023-04-04T03:24:39.199Z,3.92
2023-04-04T03:27:08.992Z,3.45
2023-04-04T03:29:38.095Z,3.38
2023-04-04T03:32:07.411Z,3.42
2023-04-04T03:34:36.709Z,3.85
2023-04-04T03:37:05.992Z,3.95
2023-04-04T03:39:36.446Z,4.03
2023-04-04T03:42:06.146Z,3.65
2023-04-04T03:44:36.635Z,3.38
2023-04-04T03:47:06.531Z,4.05
2023-04-04T03:49:36.637Z,3.88
2023-04-04T03:52:06.841Z,4.22
2023-04-04T03:54:37.242Z,4.32
2023-04-04T03:57:07.655Z,4.35
2023-04-04T03:59:37.338Z,4.60
2023-04-04T04:02:06.959Z,4.15
2023-04-04T04:04:36.222Z,4.35
2023-04-04T04:07:05.265Z,4.72
2023-04-04T04:09:34.289Z,4.80
2023-04-04T04:12:04.996Z,4.85
2023-04-04T04:14:34.066Z,4.97
2023-04-04T04:17:04.719Z,4.25
2023-04-04T04:19:33.736Z,4.68
2023-04-04T04:22:02.760Z,4.43
2023-04-04T04:24:32.099Z,4.68
2023-04-04T04:27:02.091Z,5.22
2023-04-04T04:29:32.969Z,5.07
2023-04-04T04:32:02.362Z,5.20
2023-04-04T04:34:36.253Z,5.28
2023-04-04T04:37:06.250Z,6.18
2023-04-04T04:39:44.450Z,5.22
2023-04-04T04:42:26.195Z,6.20
2023-04-04T04:45:00.606Z,6.95
2023-04-04T04:47:32.788Z,5.65
2023-04-04T04:50:05.550Z,6.85
2023-04-04T04:52:41.587Z,6.15
2023-04-04T04:55:11.595Z,6.65
2023-04-04T04:57:47.624Z,5.18
2023-04-04T05:00:24.532Z,5.18
2023-04-04T05:02:56.807Z,4.88
2023-04-04T05:05:37.981Z,5.35
2023-04-04T05:08:11.545Z,4.68
2023-04-04T05:10:48.569Z,4.10
2023-04-04T05:13:18.571Z,4.53
2023-04-04T05:15:50.576Z,4.25
2023-04-04T05:18:19.872Z,3.90
2023-04-04T05:20:54.067Z,3.88
2023-04-04T05:23:25.298Z,5.65
2023-04-04T05:25:55.167Z,3.78
2023-04-04T05:28:26.723Z,3.60
2023-04-04T05:31:01.335Z,4.03
2023-04-04T05:33:33.154Z,3.40
2023-04-04T05:36:14.863Z,3.95
2023-04-04T05:38:50.066Z,3.40
2023-04-04T05:41:22.142Z,3.95
2023-04-04T05:43:53.111Z,3.78
2023-04-04T05:46:27.216Z,4.10
2023-04-04T05:48:56.976Z,3.83
2023-04-04T05:51:27.077Z,3.53
2023-04-04T05:54:09.019Z,3.60
2023-04-04T05:56:39.874Z,4.28
2023-04-04T05:59:16.589Z,3.80
2023-04-04T06:01:57.629Z,3.92
2023-04-04T06:04:27.056Z,3.67
2023-04-04T06:06:58.108Z,3.50
2023-04-04T06:09:27.883Z,3.33
2023-04-04T06:11:57.090Z,5.88
2023-04-04T06:14:26.182Z,4.18
2023-04-04T06:16:56.707Z,4.97
2023-04-04T06:19:26.091Z,4.90
2023-04-04T06:21:55.379Z,3.72
2023-04-04T06:24:24.983Z,3.60
2023-04-04T06:26:54.135Z,3.08
2023-04-04T06:29:26.835Z,2.85
2023-04-04T06:31:59.877Z,3.38
2023-04-04T06:34:41.575Z,3.45
2023-04-04T06:37:11.794Z,3.47
2023-04-04T06:39:49.834Z,3.20
2023-04-04T06:42:26.053Z,3.35
2023-04-04T06:44:55.903Z,2.97
2023-04-04T06:47:26.333Z,2.78
2023-04-04T06:49:56.066Z,2.90
2023-04-04T06:52:26.724Z,3.05
2023-04-04T06:54:56.602Z,2.80
2023-04-04T06:57:25.758Z,2.83
2023-04-04T06:59:54.788Z,2.88
2023-04-04T07:02:25.222Z,3.00
2023-04-04T07:04:54.317Z,3.10
2023-04-04T07:07:23.374Z,2.90
2023-04-04T07:09:52.492Z,2.53
2023-04-04T07:12:21.873Z,3.30
2023-04-04T07:14:51.688Z,3.10
2023-04-04T07:17:24.623Z,2.75
2023-04-04T07:19:55.601Z,2.78
2023-04-04T07:22:24.741Z,2.90
2023-04-04T07:24:54.708Z,2.60
2023-04-04T07:27:23.721Z,3.03
2023-04-04T07:29:52.979Z,2.80
2023-04-04T07:32:24.484Z,4.00
2023-04-04T07:34:55.504Z,3.50
2023-04-04T07:37:26.609Z,3.50
2023-04-04T07:39:55.860Z,3.70
2023-04-04T07:42:25.386Z,2.80
2023-04-04T07:44:54.566Z,2.83
2023-04-04T07:47:23.823Z,3.10
2023-04-04T07:49:54.302Z,2.70
2023-04-04T07:52:23.293Z,2.50
2023-04-04T07:54:53.293Z,2.53
2023-04-04T07:57:22.357Z,2.40
2023-04-04T07:59:51.333Z,2.88
2023-04-04T08:02:20.635Z,2.58
2023-04-04T08:04:49.864Z,2.92
2023-04-04T08:07:20.397Z,2.35
2023-04-04T08:09:49.403Z,2.47
2023-04-04T08:12:18.541Z,2.67
2023-04-04T08:14:47.599Z,2.40
2023-04-04T08:17:19.127Z,2.90
2023-04-04T08:19:48.224Z,2.90
2023-04-04T08:22:17.217Z,3.92
2023-04-04T08:24:47.700Z,2.60
2023-04-04T08:27:17.078Z,2.25
2023-04-04T08:29:46.958Z,2.20
2023-04-04T08:32:16.213Z,2.00
2023-04-04T08:34:45.383Z,2.38
2023-04-04T08:37:14.773Z,2.45
2023-04-04T08:39:44.122Z,2.40
2023-04-04T08:42:17.138Z,2.13
2023-04-04T08:44:51.183Z,2.65
2023-04-04T08:47:24.575Z,2.60
2023-04-04T08:49:56.722Z,2.60
2023-04-04T08:52:29.620Z,2.17
2023-04-04T08:55:00.014Z,2.30
2023-04-04T08:57:30.868Z,2.10
2023-04-04T09:00:00.418Z,2.45
2023-04-04T09:02:35.553Z,2.25
2023-04-04T09:05:07.266Z,2.30
2023-04-04T09:07:39.195Z,2.25
2023-04-04T09:10:12.187Z,2.35
2023-04-04T09:12:47.559Z,2.30
2023-04-04T09:15:17.379Z,2.22
2023-04-04T09:17:46.504Z,2.00
2023-04-04T09:20:39.056Z,1.80
2023-04-04T09:23:11.023Z,2.97
2023-04-04T09:25:56.308Z,2.40
2023-04-04T09:28:34.854Z,2.38
2023-04-04T09:31:07.862Z,2.20
2023-04-04T09:33:37.193Z,2.00
2023-04-04T09:36:11.231Z,1.75
2023-04-04T09:38:43.207Z,1.88
2023-04-04T09:41:14.992Z,2.40
2023-04-04T09:43:47.859Z,2.47
2023-04-04T09:46:21.844Z,2.05
2023-04-04T09:48:52.023Z,1.92
2023-04-04T09:51:21.059Z,1.98
2023-04-04T09:53:50.664Z,1.95
2023-04-04T09:56:21.139Z,1.92
2023-04-04T09:59:02.997Z,1.88
2023-04-04T10:01:34.616Z,1.90
2023-04-04T10:04:06.167Z,2.10
2023-04-04T10:06:38.555Z,2.20
2023-04-04T10:09:09.502Z,1.60
2023-04-04T10:11:38.947Z,1.90
2023-04-04T10:14:10.970Z,2.00
2023-04-04T10:16:46.735Z,2.42
2023-04-04T10:19:19.421Z,2.47
2023-04-04T10:21:49.474Z,1.90
2023-04-04T10:24:19.124Z,1.90
2023-04-04T10:26:48.159Z,2.10
2023-04-04T10:29:18.668Z,2.03
2023-04-04T10:31:51.187Z,2.22
2023-04-04T10:34:30.110Z,2.70
2023-04-04T10:37:10.711Z,1.98
2023-04-04T10:39:51.389Z,2.42
2023-04-04T10:42:21.006Z,2.33
2023-04-04T10:44:52.650Z,2.05
2023-04-04T10:47:23.943Z,1.80
2023-04-04T10:49:53.989Z,2.42
2023-04-04T10:52:25.688Z,1.67
2023-04-04T10:54:58.859Z,1.83
2023-04-04T10:57:29.454Z,2.33
2023-04-04T11:00:05.147Z,1.85
2023-04-04T11:02:57.271Z,2.05
2023-04-04T11:05:31.840Z,1.90
2023-04-04T11:08:08.678Z,1.92
2023-04-04T11:13:14.330Z,1.95
2023-04-04T11:15:55.851Z,1.92
2023-04-04T11:18:47.183Z,1.67
2023-04-04T11:21:18.787Z,2.40
2023-04-04T11:24:17.060Z,2.67
2023-04-04T11:26:47.288Z,2.00
2023-04-04T11:29:43.239Z,1.73
2023-04-04T11:32:52.961Z,1.83
2023-04-04T11:35:25.558Z,2.08
2023-04-04T11:38:02.495Z,1.80
2023-04-04T11:40:41.408Z,2.03
2023-04-04T11:43:12.541Z,1.50
2023-04-04T11:45:48.084Z,1.92
2023-04-04T11:48:21.082Z,2.25
2023-04-04T11:50:53.445Z,1.52
2023-04-04T11:53:22.942Z,1.58
2023-04-04T11:55:53.069Z,1.38
2023-04-04T11:58:24.231Z,1.85
2023-04-04T12:00:53.367Z,1.40
2023-04-04T12:05:53.237Z,1.92
2023-04-04T12:08:24.042Z,2.50
2023-04-04T12:10:53.259Z,1.80
2023-04-04T12:13:22.289Z,1.48
2023-04-04T12:15:51.593Z,2.30
2023-04-04T12:18:26.354Z,1.92
2023-04-04T12:20:57.725Z,3.60
2023-04-04T12:23:27.751Z,3.67
2023-04-04T12:25:58.686Z,2.13
2023-04-04T12:28:28.442Z,2.90
2023-04-04T12:30:57.934Z,2.35
2023-04-04T12:33:28.434Z,1.98
2023-04-04T12:35:57.524Z,2.28
2023-04-04T12:38:26.878Z,1.90
2023-04-04T12:40:55.940Z,2.33
2023-04-04T12:43:29.925Z,1.90
2023-04-04T12:45:59.523Z,1.95
2023-04-04T12:48:31.799Z,2.25
2023-04-04T12:51:01.807Z,2.08
2023-04-04T12:53:33.161Z,1.67
2023-04-04T12:56:04.696Z,2.03
2023-04-04T12:58:36.212Z,1.90
2023-04-04T13:01:07.111Z,1.85
2023-04-04T13:03:38.041Z,2.20
2023-04-04T13:06:14.323Z,1.90
2023-04-04T13:08:54.140Z,1.95
2023-04-04T13:11:23.561Z,2.13
2023-04-04T13:14:02.725Z,1.73
2023-04-04T13:16:34.415Z,2.05
2023-04-04T13:19:06.198Z,2.22
2023-04-04T13:21:36.679Z,2.25
2023-04-04T13:24:06.328Z,2.60
2023-04-04T13:26:36.041Z,2.00
2023-04-04T13:29:05.034Z,2.00
2023-04-04T13:31:34.065Z,2.05
2023-04-04T13:34:04.457Z,2.25
2023-04-04T13:36:34.678Z,2.50
2023-04-04T13:39:03.722Z,1.98
2023-04-04T13:41:32.739Z,2.10
2023-04-04T13:44:03.952Z,2.03
2023-04-04T13:46:33.006Z,2.00
2023-04-04T13:49:03.679Z,2.35
2023-04-04T13:51:34.131Z,1.92
2023-04-04T13:54:03.206Z,2.30
2023-04-04T13:56:32.264Z,2.20
2023-04-04T13:59:01.372Z,2.10
2023-04-04T14:01:30.759Z,2.17
2023-04-04T14:04:01.942Z,2.10
2023-04-04T14:06:35.827Z,2.10
2023-04-04T14:09:04.973Z,1.90
2023-04-04T14:11:35.686Z,2.45
2023-04-04T14:14:04.661Z,2.35
2023-04-04T14:16:33.816Z,3.00
2023-04-04T14:19:02.950Z,2.50
2023-04-04T14:21:33.612Z,2.20
2023-04-04T14:24:02.768Z,2.35
2023-04-04T14:26:33.308Z,2.17
2023-04-04T14:29:03.420Z,2.45
2023-04-04T14:31:34.909Z,2.28
2023-04-04T14:34:05.323Z,2.63
2023-04-04T14:36:36.571Z,2.15
2023-04-04T14:39:05.821Z,2.55
2023-04-04T14:41:34.908Z,2.30
2023-04-04T14:44:03.955Z,2.17
2023-04-04T14:46:34.076Z,1.98
2023-04-04T14:49:06.337Z,2.53
2023-04-04T14:51:36.860Z,2.30
2023-04-04T14:54:06.130Z,2.10
2023-04-04T14:56:35.215Z,2.25
2023-04-04T14:59:05.749Z,2.60
2023-04-04T15:01:34.832Z,2.40
2023-04-04T15:04:03.980Z,6.40
2023-04-04T15:06:36.224Z,3.92
2023-04-04T15:09:08.094Z,2.83
2023-04-04T15:11:37.250Z,2.50
2023-04-04T15:14:06.825Z,2.65
2023-04-04T15:16:36.165Z,2.40
2023-04-04T15:19:05.361Z,2.42
2023-04-04T15:21:34.422Z,2.60
2023-04-04T15:24:03.457Z,2.08
2023-04-04T15:26:34.002Z,2.35
2023-04-04T15:29:02.985Z,2.30
2023-04-04T15:31:32.721Z,2.33
2023-04-04T15:34:01.923Z,2.50
2023-04-04T15:36:31.417Z,2.33
2023-04-04T15:39:01.069Z,2.63
2023-04-04T15:41:30.296Z,2.40
2023-04-04T15:44:00.714Z,2.22
2023-04-04T15:46:29.794Z,2.50
2023-04-04T15:48:58.888Z,2.72
2023-04-04T15:51:28.944Z,2.60
2023-04-04T15:53:58.319Z,2.70
2023-04-04T15:56:27.701Z,2.67
2023-04-04T15:58:57.043Z,2.83
2023-04-04T16:01:30.473Z,2.67
2023-04-04T16:03:59.689Z,2.75
2023-04-04T16:06:30.132Z,2.88
2023-04-04T16:08:59.471Z,2.90
2023-04-04T16:11:28.589Z,2.65
2023-04-04T16:13:57.608Z,2.65
2023-04-04T16:16:26.794Z,2.60
2023-04-04T16:18:57.453Z,2.45
2023-04-04T16:21:26.561Z,2.70
2023-04-04T16:23:55.998Z,2.97
2023-04-04T16:26:25.093Z,2.95
2023-04-04T16:28:54.516Z,2.95
2023-04-04T16:31:24.901Z,3.13
2023-04-04T16:33:54.044Z,2.88
2023-04-04T16:36:24.488Z,3.28
2023-04-04T16:38:54.858Z,3.67
2023-04-04T16:41:23.943Z,3.50
2023-04-04T16:43:54.749Z,3.22
2023-04-04T16:46:23.831Z,2.80
2023-04-04T16:48:52.901Z,3.00
2023-04-04T16:51:22.037Z,3.72
2023-04-04T16:53:52.491Z,3.20
2023-04-04T16:56:22.434Z,3.25
2023-04-04T16:58:55.598Z,2.90
2023-04-04T17:01:26.755Z,2.80
2023-04-04T17:03:55.960Z,4.55
2023-04-04T17:06:27.403Z,4.25
2023-04-04T17:08:57.949Z,3.45
2023-04-04T17:11:27.210Z,3.22
2023-04-04T17:13:56.208Z,3.25
2023-04-04T17:16:26.429Z,3.25
2023-04-04T17:18:55.518Z,3.13
2023-04-04T17:21:25.106Z,3.20
2023-04-04T17:23:54.202Z,3.60
2023-04-04T17:26:24.601Z,3.30
2023-04-04T17:28:53.676Z,3.28
2023-04-04T17:31:23.014Z,6.60
2023-04-04T17:33:52.200Z,22.60
2023-04-04T17:36:21.599Z,4.95
2023-04-04T17:38:50.857Z,3.97
2023-04-04T17:41:19.938Z,11.35
2023-04-04T17:43:51.627Z,7.00
2023-04-04T17:46:20.781Z,8.10
2023-04-04T17:48:49.797Z,7.05
2023-04-04T17:51:19.620Z,3.58
2023-04-04T17:53:48.985Z,5.72
2023-04-04T17:56:18.014Z,5.10
2023-04-04T17:58:47.183Z,5.75
2023-04-04T18:01:17.854Z,5.68
2023-04-04T18:03:47.767Z,3.80
2023-04-04T18:06:17.161Z,3.70
2023-04-04T18:08:46.150Z,3.35
2023-04-04T18:11:15.313Z,3.92
2023-04-04T18:13:45.359Z,4.10
2023-04-04T18:16:14.542Z,4.90
2023-04-04T18:18:46.108Z,5.05
2023-04-04T18:21:15.186Z,5.05
2023-04-04T18:23:44.881Z,4.72
2023-04-04T18:26:15.045Z,4.57
2023-04-04T18:28:44.247Z,5.20
2023-04-04T18:31:14.543Z,4.90
2023-04-04T18:33:45.138Z,3.97
2023-04-04T18:36:14.254Z,4.75
2023-04-04T18:38:43.659Z,4.13
2023-04-04T18:41:12.710Z,5.43
2023-04-04T18:43:41.908Z,4.50
2023-04-04T18:46:11.099Z,4.28
2023-04-04T18:48:40.086Z,5.60
2023-04-04T18:51:11.747Z,4.30
2023-04-04T18:53:42.365Z,4.40
2023-04-04T18:56:11.830Z,4.40
2023-04-04T18:58:41.920Z,4.65
2023-04-04T19:01:13.014Z,4.38
2023-04-04T19:03:47.513Z,4.13
2023-04-04T19:06:20.372Z,4.10
2023-04-04T19:08:53.556Z,4.20
2023-04-04T19:11:24.038Z,4.38
2023-04-04T19:13:53.656Z,9.60
2023-04-04T19:16:24.302Z,6.03
2023-04-04T19:18:54.712Z,5.78
2023-04-04T19:21:26.440Z,6.07
2023-04-04T19:23:55.982Z,5.05
2023-04-04T19:26:25.100Z,4.55
2023-04-04T19:28:54.584Z,4.80
2023-04-04T19:31:30.065Z,4.22
2023-04-04T19:33:59.660Z,4.15
2023-04-04T19:36:32.010Z,4.15
2023-04-04T19:39:01.031Z,4.68
2023-04-04T19:41:36.579Z,4.43
2023-04-04T19:44:08.841Z,4.57
2023-04-04T19:46:38.000Z,4.30
2023-04-04T19:49:12.058Z,4.80
2023-04-04T19:51:52.542Z,4.95
2023-04-04T19:54:27.607Z,4.60
2023-04-04T19:57:01.801Z,5.15
2023-04-04T20:00:13.497Z,4.40
2023-04-04T20:02:54.704Z,5.30
2023-04-04T20:05:59.001Z,5.20
2023-04-04T20:08:41.041Z,5.10
2023-04-04T20:11:10.129Z,5.38
2023-04-04T20:13:40.137Z,4.85
2023-04-04T20:16:14.795Z,5.38
2023-04-04T20:18:45.671Z,4.90
2023-04-04T20:21:17.363Z,4.50
2023-04-04T20:23:52.623Z,4.82
2023-04-04T20:26:42.649Z,5.05
2023-04-04T20:29:13.967Z,5.15
2023-04-04T20:31:46.228Z,4.30
2023-04-04T20:34:42.132Z,4.60
2023-04-04T20:37:19.961Z,4.53
2023-04-04T20:39:54.710Z,5.20
2023-04-04T20:42:41.788Z,4.90
2023-04-04T20:45:44.943Z,4.63
2023-04-04T20:48:40.958Z,4.90
2023-04-04T20:51:27.204Z,5.68
2023-04-04T20:53:59.181Z,4.95
2023-04-04T20:56:52.500Z,4.68
2023-04-04T20:59:36.886Z,4.88
2023-04-04T21:02:12.556Z,5.75
2023-04-04T21:04:42.475Z,6.35
2023-04-04T21:07:42.615Z,5.13
2023-04-04T21:10:26.531Z,5.05
2023-04-04T21:12:58.993Z,4.63
2023-04-04T21:15:30.336Z,5.25
2023-04-04T21:18:08.999Z,4.80
2023-04-04T21:21:12.114Z,4.30
2023-04-04T21:23:47.255Z,4.97
2023-04-04T21:26:34.152Z,4.78
2023-04-04T21:29:07.240Z,4.10
2023-04-04T21:31:39.075Z,4.53
2023-04-04T21:34:14.761Z,6.60
2023-04-04T21:36:44.521Z,5.35
2023-04-04T21:39:15.948Z,5.70
2023-04-04T21:41:46.033Z,5.72
2023-04-04T21:44:16.503Z,5.35
2023-04-04T21:46:45.749Z,5.43
2023-04-04T21:49:14.882Z,5.20
2023-04-04T21:51:44.165Z,5.80
2023-04-04T21:54:14.386Z,6.45
2023-04-04T21:56:43.506Z,6.47
2023-04-04T21:59:12.785Z,5.85
2023-04-04T22:01:43.381Z,5.90
2023-04-04T22:04:12.608Z,6.00
2023-04-04T22:06:42.769Z,5.97
2023-04-04T22:09:11.882Z,6.50
2023-04-04T22:11:45.510Z,5.38
2023-04-04T22:14:17.449Z,6.25
2023-04-04T22:16:48.481Z,5.90
2023-04-04T22:19:17.854Z,6.38
2023-04-04T22:21:48.686Z,6.32
2023-04-04T22:24:19.212Z,6.43
2023-04-04T22:26:50.622Z,5.45
2023-04-04T22:29:22.912Z,6.43
2023-04-04T22:31:53.344Z,6.25
2023-04-04T22:34:22.596Z,5.80
2023-04-04T22:36:54.849Z,6.97
2023-04-04T22:39:24.125Z,5.80
2023-04-04T22:41:53.156Z,6.25
2023-04-04T22:44:22.401Z,6.18
2023-04-04T22:46:52.906Z,6.30
2023-04-04T22:49:22.339Z,5.90
2023-04-04T22:51:55.531Z,6.18
2023-04-04T22:54:24.814Z,6.10
2023-04-04T22:56:54.138Z,6.32
2023-04-04T22:59:23.181Z,6.97
2023-04-04T23:01:53.808Z,8.10
2023-04-04T23:04:22.958Z,6.68
2023-04-04T23:06:52.111Z,6.40
2023-04-04T23:09:21.506Z,7.10
2023-04-04T23:11:50.494Z,6.90
2023-04-04T23:14:19.664Z,6.38
2023-04-04T23:16:49.110Z,7.07
2023-04-04T23:19:19.949Z,6.82
2023-04-04T23:21:49.045Z,7.10
2023-04-04T23:24:18.254Z,6.95
2023-04-04T23:26:47.311Z,6.78
2023-04-04T23:29:16.423Z,7.32
2023-04-04T23:31:45.575Z,6.95
2023-04-04T23:34:14.644Z,6.68
2023-04-04T23:36:45.085Z,6.55
2023-04-04T23:39:14.878Z,7.00
2023-04-04T23:41:43.945Z,7.85
2023-04-04T23:44:13.211Z,7.03
2023-04-04T23:46:42.571Z,7.50
2023-04-04T23:49:12.736Z,7.47
2023-04-04T23:51:42.360Z,6.57
2023-04-04T23:54:14.278Z,7.32
2023-04-04T23:56:43.308Z,6.95
2023-04-04T23:59:12.378Z,6.80
